Time;durP1;ratioP1;P1;durP2;ratioP2;P2;SDS_P1;SDS_P2;PMS_P1;PMS_P2;Temp;Humidity;BMP_temperature;BMP_pressure;BME280_temperature;BME280_humidity;BME280_pressure;Samples;Min_cycle;Max_cycle;Signal;HPM_P1;HPM_P2
2021/06/20 00:00:54;;;;;;;7.55;5.28;;;;;;;23.58;35.41;100543.13;4847321;28;99093;-76
2021/06/20 00:03:22;;;;;;;8.55;5.57;;;;;;;23.55;36.42;100542.34;4848881;28;99611;-76
2021/06/20 00:05:51;;;;;;;5.85;5.32;;;;;;;23.52;36.25;100539.72;4847767;28;98092;-76
2021/06/20 00:08:21;;;;;;;5.97;5.40;;;;;;;23.48;36.54;100530.81;4846054;28;98258;-76
2021/06/20 00:10:50;;;;;;;7.18;5.70;;;;;;;23.43;36.87;100534.63;4848088;28;98178;-77
2021/06/20 00:13:19;;;;;;;6.20;5.35;;;;;;;23.41;36.59;100529.25;4845913;28;99001;-78
2021/06/20 00:15:48;;;;;;;6.00;5.53;;;;;;;23.38;36.72;100525.75;4819610;29;97816;-77
2021/06/20 00:18:16;;;;;;;6.30;5.70;;;;;;;23.33;36.06;100514.16;4850287;28;98188;-78
2021/06/20 00:20:46;;;;;;;6.85;5.82;;;;;;;23.30;35.83;100503.38;4845667;28;99647;-78
2021/06/20 00:23:14;;;;;;;6.72;6.05;;;;;;;23.24;36.21;100495.47;4845209;28;99284;-78
2021/06/20 00:25:44;;;;;;;6.17;5.57;;;;;;;23.20;35.88;100494.69;4844396;28;97467;-79
2021/06/20 00:28:11;;;;;;;8.32;6.35;;;;;;;23.17;35.72;100481.22;4846488;28;98353;-78
2021/06/20 00:30:39;;;;;;;6.43;5.82;;;;;;;23.14;35.76;100475.91;4846735;28;98023;-78
2021/06/20 00:33:07;;;;;;;6.95;6.22;;;;;;;23.10;35.83;100462.47;4850435;28;99694;-78
2021/06/20 00:35:35;;;;;;;6.37;5.83;;;;;;;23.07;35.64;100462.59;4831061;28;97451;-79
2021/06/20 00:38:03;;;;;;;9.83;6.07;;;;;;;23.04;35.83;100450.00;4831093;28;97304;-77
2021/06/20 00:40:31;;;;;;;6.60;6.10;;;;;;;23.00;35.97;100451.09;4846118;28;98075;-78
2021/06/20 00:43:00;;;;;;;6.33;5.73;;;;;;;22.96;36.14;100449.41;4846007;28;99297;-77
2021/06/20 00:45:27;;;;;;;6.78;6.13;;;;;;;22.92;36.13;100446.84;4844666;28;98027;-76
2021/06/20 00:47:57;;;;;;;5.72;5.20;;;;;;;22.51;36.80;100429.25;4846957;28;97974;-78
2021/06/20 00:50:25;;;;;;;6.90;6.20;;;;;;;22.31;37.07;100416.34;4845356;28;99396;-78
2021/06/20 00:52:55;;;;;;;6.72;6.20;;;;;;;22.59;36.49;100406.34;4844705;28;97598;-77
2021/06/20 00:55:23;;;;;;;5.70;5.20;;;;;;;22.20;36.97;100401.34;4844247;28;97785;-77
2021/06/20 00:57:51;;;;;;;6.57;5.93;;;;;;;22.03;37.35;100388.34;4846472;28;97436;-76
2021/06/20 01:00:21;;;;;;;6.75;6.25;;;;;;;21.92;37.25;100385.09;4843585;28;99414;-76
2021/06/20 01:02:49;;;;;;;6.57;6.07;;;;;;;21.82;37.44;100375.47;4843642;28;100238;-77
2021/06/20 01:05:16;;;;;;;7.50;6.85;;;;;;;21.74;37.30;100378.41;4844705;28;97396;-76
2021/06/20 01:07:45;;;;;;;7.18;6.47;;;;;;;21.64;37.43;100381.41;4845985;28;97426;-76
2021/06/20 01:10:13;;;;;;;6.82;6.03;;;;;;;21.58;37.71;100385.19;4842920;28;99405;-77
2021/06/20 01:12:41;;;;;;;7.75;6.95;;;;;;;21.51;37.57;100377.31;4827272;28;99373;-76
2021/06/20 01:15:10;;;;;;;7.38;6.65;;;;;;;21.46;37.77;100384.69;4843274;28;96942;-76
2021/06/20 01:17:41;;;;;;;8.85;7.10;;;;;;;21.39;37.66;100404.75;4845996;28;97157;-77
2021/06/20 01:20:11;;;;;;;7.55;6.88;;;;;;;21.32;37.50;100430.25;4844186;28;97406;-76
2021/06/20 01:22:42;;;;;;;9.80;7.13;;;;;;;21.23;37.78;100442.22;4842532;28;100073;-77
2021/06/20 01:25:13;;;;;;;8.00;7.20;;;;;;;21.16;37.76;100461.38;4841469;28;96869;-76
2021/06/20 01:27:43;;;;;;;7.85;7.25;;;;;;;21.11;37.83;100475.00;4844700;28;97509;-76
2021/06/20 01:30:13;;;;;;;8.70;7.70;;;;;;;21.01;38.09;100497.81;4829932;28;100148;-75
2021/06/20 01:32:42;;;;;;;8.60;7.75;;;;;;;20.87;38.61;100508.09;4845849;28;99292;-77
2021/06/20 01:35:11;;;;;;;8.73;7.93;;;;;;;20.77;38.72;100520.06;4848187;28;99068;-79
2021/06/20 01:37:40;;;;;;;9.95;8.40;;;;;;;20.72;38.99;100525.59;4848528;28;98613;-79
2021/06/20 01:40:12;;;;;;;8.38;7.68;;;;;;;20.68;38.90;100526.63;4848280;28;97373;-79
2021/06/20 01:42:40;;;;;;;8.73;7.93;;;;;;;20.66;38.71;100524.84;4846510;28;99380;-78
2021/06/20 01:45:09;;;;;;;9.43;8.13;;;;;;;20.69;38.74;100509.44;4831759;28;97456;-79
2021/06/20 01:47:38;;;;;;;8.93;8.13;;;;;;;20.71;38.98;100502.19;4847893;28;97320;-79
2021/06/20 01:50:08;;;;;;;10.77;8.82;;;;;;;20.74;39.07;100501.22;4847385;28;98362;-78
2021/06/20 01:52:37;;;;;;;9.98;8.90;;;;;;;20.76;39.09;100499.34;4844484;28;98091;-78
2021/06/20 01:55:08;;;;;;;9.70;8.50;;;;;;;20.77;39.12;100490.31;4845785;28;97758;-78
2021/06/20 01:57:37;;;;;;;10.80;8.45;;;;;;;20.78;38.83;100481.28;4846484;28;97296;-80
2021/06/20 02:00:08;;;;;;;8.63;7.93;;;;;;;20.79;38.92;100473.16;4851654;28;98003;-78
2021/06/20 02:02:41;;;;;;;10.45;8.75;;;;;;;20.78;39.25;100468.66;4869199;28;100732;-77
2021/06/20 02:05:10;;;;;;;9.88;8.60;;;;;;;20.78;39.36;100463.22;4853966;28;97560;-79
2021/06/20 02:07:39;;;;;;;8.88;7.88;;;;;;;20.79;39.13;100472.25;4853846;28;96894;-77
2021/06/20 02:10:11;;;;;;;9.52;8.55;;;;;;;20.75;39.52;100468.75;4846268;28;99316;-76
2021/06/20 02:12:39;;;;;;;10.02;9.00;;;;;;;20.75;39.36;100465.13;4846564;28;98421;-76
2021/06/20 02:15:15;;;;;;;10.15;8.70;;;;;;;20.75;39.46;100465.13;4847354;28;97829;-76
2021/06/20 02:17:45;;;;;;;10.00;9.10;;;;;;;20.75;39.44;100462.44;4865864;28;97479;-76
2021/06/20 02:20:15;;;;;;;9.75;8.75;;;;;;;20.74;39.22;100466.06;4847040;28;97790;-75
2021/06/20 02:22:44;;;;;;;12.10;9.57;;;;;;;20.71;39.43;100455.31;4833260;28;100560;-76
2021/06/20 02:25:15;;;;;;;10.88;9.25;;;;;;;20.67;39.84;100454.50;4846615;28;97664;-77
2021/06/20 02:27:45;;;;;;;10.55;9.35;;;;;;;20.63;39.89;100444.69;4848029;28;97315;-77
2021/06/20 02:30:15;;;;;;;10.00;9.10;;;;;;;20.59;39.48;100432.19;4849581;28;98831;-77
2021/06/20 02:32:43;;;;;;;9.68;8.77;;;;;;;20.58;39.49;100434.91;4848608;28;99686;-77
2021/06/20 02:35:13;;;;;;;13.23;10.98;;;;;;;20.96;40.03;100426.69;4846625;28;97588;-76
2021/06/20 02:37:43;;;;;;;10.70;9.57;;;;;;;20.68;40.39;100423.84;4846735;28;97207;-76
2021/06/20 02:40:14;;;;;;;11.45;10.25;;;;;;;20.57;40.48;100416.94;4830420;28;100395;-76
2021/06/20 02:42:43;;;;;;;10.05;8.93;;;;;;;20.51;40.58;100404.44;4844767;28;100712;-76
2021/06/20 02:45:12;;;;;;;14.18;10.25;;;;;;;20.45;40.22;100401.00;4845819;28;96990;-76
2021/06/20 02:47:41;;;;;;;10.95;9.23;;;;;;;20.43;40.63;100401.03;4843652;28;97871;-77
2021/06/20 02:50:10;;;;;;;10.77;9.50;;;;;;;20.40;40.38;100386.69;4849162;28;98634;-76
2021/06/20 02:52:38;;;;;;;14.10;10.00;;;;;;;20.38;40.79;100384.03;4851226;28;98132;-77
2021/06/20 02:55:07;;;;;;;14.10;11.30;;;;;;;20.80;40.80;100387.47;4846824;28;97213;-76
2021/06/20 02:57:36;;;;;;;12.80;9.75;;;;;;;20.55;40.84;100389.94;4863709;28;97729;-77
2021/06/20 03:00:05;;;;;;;13.45;10.30;;;;;;;20.47;40.64;100377.50;4830415;28;99364;-77
2021/06/20 03:02:33;;;;;;;11.23;10.13;;;;;;;20.41;40.92;100378.53;4845143;28;99369;-77
2021/06/20 03:05:01;;;;;;;16.33;10.95;;;;;;;20.39;40.89;100377.72;4848580;28;97117;-76
2021/06/20 03:07:30;;;;;;;10.77;9.73;;;;;;;20.36;40.96;100385.88;4848238;28;96982;-76
2021/06/20 03:09:58;;;;;;;11.98;10.05;;;;;;;20.33;40.52;100380.56;4847507;28;97657;-76
2021/06/20 03:12:26;;;;;;;12.63;11.43;;;;;;;20.31;40.94;100370.72;4852099;28;97825;-76
2021/06/20 03:14:55;;;;;;;12.50;11.20;;;;;;;20.28;40.95;100378.91;4853176;28;97759;-78
2021/06/20 03:17:23;;;;;;;15.23;10.38;;;;;;;20.25;40.99;100368.19;4853589;28;97566;-77
2021/06/20 03:19:51;;;;;;;13.10;10.73;;;;;;;20.25;40.52;100369.06;4838237;29;98930;-77
2021/06/20 03:22:19;;;;;;;14.55;11.18;;;;;;;20.23;40.47;100364.63;4850954;28;99297;-78
2021/06/20 03:24:49;;;;;;;14.73;11.50;;;;;;;20.20;40.78;100368.28;4849025;28;96801;-76
2021/06/20 03:27:18;;;;;;;13.88;11.05;;;;;;;20.18;40.55;100370.13;4851666;28;97292;-78
2021/06/20 03:29:46;;;;;;;16.52;11.13;;;;;;;20.15;40.60;100369.34;4850128;28;99370;-78
2021/06/20 03:32:16;;;;;;;11.55;10.35;;;;;;;20.16;40.71;100371.09;4865500;28;98454;-78
2021/06/20 03:34:44;;;;;;;12.40;11.15;;;;;;;20.13;40.79;100360.38;4850003;28;98025;-79
2021/06/20 03:37:12;;;;;;;13.27;12.00;;;;;;;20.13;40.79;100354.97;4850011;28;98067;-78
2021/06/20 03:39:42;;;;;;;23.20;12.73;;;;;;;20.12;40.57;100343.25;4850085;28;100089;-78
2021/06/20 03:42:10;;;;;;;15.20;10.90;;;;;;;20.13;40.57;100338.75;4849191;28;98916;-79
2021/06/20 03:44:37;;;;;;;12.55;11.05;;;;;;;20.13;40.51;100317.16;4851211;28;96815;-78
2021/06/20 03:47:05;;;;;;;19.15;12.27;;;;;;;20.11;40.46;100309.09;4849296;28;96913;-79
2021/06/20 03:49:35;;;;;;;14.70;12.02;;;;;;;20.10;40.93;100304.63;4847135;28;99682;-77
2021/06/20 03:52:03;;;;;;;15.10;11.80;;;;;;;20.08;40.66;100316.38;4848956;28;97626;-77
2021/06/20 03:54:31;;;;;;;14.30;11.45;;;;;;;20.05;40.76;100327.28;4850716;28;97150;-76
2021/06/20 03:56:59;;;;;;;14.85;12.40;;;;;;;20.02;40.65;100324.63;4851860;28;96970;-77
2021/06/20 03:59:29;;;;;;;17.92;13.20;;;;;;;20.01;40.95;100326.44;4850346;28;100204;-78
2021/06/20 04:01:57;;;;;;;13.43;11.15;;;;;;;20.03;41.21;100331.81;4849913;28;98124;-78
2021/06/20 04:04:25;;;;;;;12.85;11.50;;;;;;;20.04;41.22;100328.19;4851664;28;97296;-79
2021/06/20 04:06:54;;;;;;;16.58;12.27;;;;;;;20.05;41.19;100313.78;4848495;28;97300;-79
2021/06/20 04:09:21;;;;;;;13.73;12.40;;;;;;;20.04;40.96;100326.38;4847238;28;97858;-78
2021/06/20 04:11:49;;;;;;;13.75;11.95;;;;;;;20.04;41.15;100330.88;4848186;28;99119;-78
2021/06/20 04:14:17;;;;;;;17.48;13.10;;;;;;;20.03;40.87;100331.81;4844616;28;97538;-78
2021/06/20 04:16:45;;;;;;;17.38;12.70;;;;;;;20.04;40.84;100325.47;4849487;28;97264;-77
2021/06/20 04:19:12;;;;;;;15.60;12.38;;;;;;;20.07;40.70;100317.28;4847928;28;100116;-78
2021/06/20 04:21:40;;;;;;;18.35;13.02;;;;;;;20.05;41.21;100327.28;4848076;28;99204;-78
2021/06/20 04:24:09;;;;;;;27.15;13.30;;;;;;;20.06;41.21;100320.94;4848322;28;97913;-78
2021/06/20 04:26:37;;;;;;;17.10;13.20;;;;;;;20.06;41.27;100315.53;4846165;28;97451;-77
2021/06/20 04:29:05;;;;;;;17.02;12.82;;;;;;;20.06;41.09;100313.72;4838088;28;100528;-78
2021/06/20 04:31:33;;;;;;;16.00;13.85;;;;;;;20.06;40.89;100313.72;4850467;28;97629;-79
2021/06/20 04:34:01;;;;;;;17.48;14.13;;;;;;;20.07;41.28;100323.59;4834503;28;97920;-81
2021/06/20 04:36:29;;;;;;;15.48;13.32;;;;;;;20.09;40.90;100320.84;4849657;28;98247;-79
2021/06/20 04:38:58;;;;;;;22.60;16.00;;;;;;;20.48;41.11;100320.72;4849234;28;99434;-78
2021/06/20 04:41:27;;;;;;;18.92;14.68;;;;;;;20.25;41.33;100314.16;4845461;28;100754;-78
2021/06/20 04:44:02;;;;;;;17.10;13.63;;;;;;;20.20;41.34;100313.34;4850127;28;97071;-78
2021/06/20 04:46:33;;;;;;;15.95;14.13;;;;;;;20.17;41.30;100305.34;4834049;28;97567;-77
2021/06/20 04:49:03;;;;;;;20.02;14.77;;;;;;;20.14;41.20;100311.69;4847483;28;100158;-78
2021/06/20 04:51:32;;;;;;;20.00;16.40;;;;;;;20.12;41.39;100304.59;4830245;28;99604;-77
2021/06/20 04:54:00;;;;;;;19.63;15.65;;;;;;;20.12;41.50;100307.28;4844211;28;97524;-77
2021/06/20 04:56:29;;;;;;;16.80;15.10;;;;;;;20.11;41.24;100303.69;4844276;28;97483;-77
2021/06/20 04:58:57;;;;;;;20.85;16.75;;;;;;;20.09;41.74;100307.34;4845106;28;97948;-78
2021/06/20 05:01:24;;;;;;;20.45;16.73;;;;;;;20.09;41.43;100310.03;4846155;28;99241;-78
2021/06/20 05:03:53;;;;;;;19.92;17.77;;;;;;;20.07;41.54;100307.38;4845857;28;97697;-76
2021/06/20 05:06:21;;;;;;;19.30;17.27;;;;;;;20.06;41.57;100296.63;4844751;28;97665;-76
2021/06/20 05:08:49;;;;;;;22.20;15.75;;;;;;;20.05;41.67;100292.16;4845748;28;99895;-78
2021/06/20 05:11:17;;;;;;;27.52;18.23;;;;;;;20.06;41.83;100294.81;4845656;28;99696;-78
2021/06/20 05:13:46;;;;;;;22.27;18.17;;;;;;;20.07;42.23;100301.09;4848659;28;97464;-75
2021/06/20 05:16:13;;;;;;;20.75;17.13;;;;;;;20.07;42.39;100301.09;4845293;28;97889;-76
2021/06/20 05:18:41;;;;;;;20.23;17.38;;;;;;;20.07;42.52;100298.38;4846576;28;100938;-77
2021/06/20 05:21:09;;;;;;;23.55;18.50;;;;;;;20.06;42.62;100315.53;4830353;28;97662;-77
2021/06/20 05:23:37;;;;;;;23.25;19.15;;;;;;;20.08;42.59;100308.28;4848653;28;97084;-77
2021/06/20 05:26:05;;;;;;;20.65;18.17;;;;;;;20.07;42.37;100301.09;4844743;28;97343;-76
2021/06/20 05:28:32;;;;;;;22.33;19.25;;;;;;;20.09;42.65;100310.03;4861399;28;99845;-78
2021/06/20 05:31:02;;;;;;;21.55;17.52;;;;;;;20.09;43.05;100316.34;4841326;28;97564;-70
2021/06/20 05:33:29;;;;;;;23.25;19.00;;;;;;;19.88;43.37;100430.28;4841553;28;96924;-77
2021/06/20 05:35:57;;;;;;;24.85;19.45;;;;;;;19.73;43.97;100423.41;4837027;28;99053;-71
2021/06/20 05:38:25;;;;;;;23.40;19.02;;;;;;;19.63;44.09;100316.53;4838322;28;100568;-70
2021/06/20 05:40:53;;;;;;;22.38;20.02;;;;;;;19.59;44.48;100344.50;4842433;28;97676;-70
2021/06/20 05:43:20;;;;;;;24.63;17.92;;;;;;;19.42;45.07;100403.41;4855293;28;97411;-69
2021/06/20 05:45:48;;;;;;;22.73;20.05;;;;;;;19.46;44.37;100399.69;4840759;28;96948;-69
2021/06/20 05:48:17;;;;;;;27.02;20.70;;;;;;;19.43;44.67;100393.47;4837742;28;97843;-69
2021/06/20 05:50:45;;;;;;;23.38;20.42;;;;;;;19.44;44.83;100389.88;4845959;28;100483;-69
2021/06/20 05:53:12;;;;;;;24.67;18.85;;;;;;;19.48;44.42;100387.03;4845280;28;97347;-69
2021/06/20 05:55:40;;;;;;;23.58;19.70;;;;;;;19.55;44.69;100382.44;4847345;28;96811;-69
2021/06/20 05:58:08;;;;;;;25.92;20.88;;;;;;;19.63;44.68;100385.81;4845808;28;98607;-69
2021/06/20 06:00:36;;;;;;;23.23;20.38;;;;;;;19.75;44.46;100370.25;4840903;28;97966;-69
2021/06/20 06:03:04;;;;;;;20.85;18.73;;;;;;;19.86;44.37;100362.78;4847295;28;96888;-69
2021/06/20 06:05:33;;;;;;;22.35;19.67;;;;;;;19.95;43.90;100356.31;4844600;28;97666;-72
2021/06/20 06:08:01;;;;;;;21.35;18.75;;;;;;;20.01;44.09;100349.88;4842901;28;99459;-69
2021/06/20 06:10:29;;;;;;;22.02;18.90;;;;;;;20.13;43.58;100371.19;4843982;28;101266;-69
2021/06/20 06:12:58;;;;;;;29.98;24.35;;;;;;;20.62;44.22;100372.63;4842036;28;97454;-68
2021/06/20 06:15:27;;;;;;;22.85;20.52;;;;;;;20.51;44.39;100369.28;4842796;28;97514;-69
2021/06/20 06:17:55;;;;;;;22.85;19.33;;;;;;;20.48;43.80;100363.97;4844606;28;97733;-69
2021/06/20 06:20:23;;;;;;;19.92;17.85;;;;;;;20.51;44.05;100362.97;4844699;28;98872;-69
2021/06/20 06:22:52;;;;;;;21.08;17.92;;;;;;;20.54;43.67;100358.41;4848726;28;96770;-69
2021/06/20 06:25:20;;;;;;;23.10;18.42;;;;;;;20.58;43.66;100361.94;4843375;28;97562;-69
2021/06/20 06:27:49;;;;;;;19.98;17.90;;;;;;;20.54;43.69;100353.00;4829745;28;99523;-71
2021/06/20 06:30:18;;;;;;;21.67;18.33;;;;;;;20.57;43.44;100346.66;4845607;28;98031;-71
2021/06/20 06:32:47;;;;;;;19.45;17.38;;;;;;;20.58;43.58;100353.81;4828568;28;97458;-71
2021/06/20 06:35:16;;;;;;;20.42;16.83;;;;;;;20.57;43.47;100357.47;4828081;28;96816;-70
2021/06/20 06:37:45;;;;;;;22.75;17.67;;;;;;;20.54;43.81;100353.00;4826906;28;98297;-70
2021/06/20 06:40:15;;;;;;;20.50;18.35;;;;;;;20.58;43.54;100357.41;4829021;28;101391;-70
2021/06/20 06:42:43;;;;;;;22.02;17.00;;;;;;;20.59;43.60;100352.91;4845688;28;98941;-70
2021/06/20 06:45:12;;;;;;;19.77;16.15;;;;;;;20.65;43.38;100350.00;4837538;28;98043;-71
2021/06/20 06:47:40;;;;;;;18.27;15.63;;;;;;;20.69;43.37;100339.09;4844459;28;98134;-73
2021/06/20 06:50:09;;;;;;;20.27;15.40;;;;;;;20.76;43.09;100328.97;4841827;28;100504;-73
2021/06/20 06:52:37;;;;;;;19.70;15.93;;;;;;;20.80;43.07;100333.38;4846491;28;97121;-73
2021/06/20 06:55:09;;;;;;;19.70;16.17;;;;;;;20.83;42.79;100336.00;4845588;28;98470;-72
2021/06/20 06:57:38;;;;;;;17.95;15.85;;;;;;;20.91;42.95;100331.25;4842125;28;98960;-73
2021/06/20 07:00:10;;;;;;;16.33;14.80;;;;;;;21.00;43.09;100336.41;4842315;28;98602;-74
2021/06/20 07:02:38;;;;;;;18.20;16.10;;;;;;;21.00;42.87;100341.81;4846183;28;96814;-73
2021/06/20 07:05:07;;;;;;;21.80;16.92;;;;;;;21.01;42.94;100332.78;4846888;28;97515;-73
2021/06/20 07:07:35;;;;;;;18.05;15.77;;;;;;;21.08;42.86;100334.38;4846977;28;97990;-74
2021/06/20 07:10:04;;;;;;;18.38;15.30;;;;;;;21.17;42.55;100347.66;4846094;28;99490;-73
2021/06/20 07:12:32;;;;;;;18.13;15.93;;;;;;;21.23;42.44;100355.63;4844751;28;97128;-72
2021/06/20 07:15:04;;;;;;;22.52;17.98;;;;;;;21.31;42.49;100361.66;4844038;28;98861;-71
2021/06/20 07:17:31;;;;;;;21.33;16.30;;;;;;;21.31;42.51;100364.38;4827403;28;100504;-70
2021/06/20 07:19:59;;;;;;;19.33;15.77;;;;;;;21.27;42.67;100359.13;4844961;28;97948;-72
2021/06/20 07:22:28;;;;;;;18.35;16.08;;;;;;;21.23;42.80;100363.72;4847346;28;97824;-77
2021/06/20 07:24:56;;;;;;;18.90;16.65;;;;;;;21.27;42.49;100373.50;4842979;28;97392;-77
2021/06/20 07:27:24;;;;;;;22.45;16.40;;;;;;;21.29;42.69;100371.66;4843455;28;99159;-77
2021/06/20 07:29:52;;;;;;;16.92;15.07;;;;;;;21.33;42.37;100365.22;4826196;28;100792;-78
2021/06/20 07:32:21;;;;;;;19.13;16.55;;;;;;;21.41;42.33;100357.78;4836068;28;97431;-77
2021/06/20 07:34:51;;;;;;;18.42;16.00;;;;;;;21.46;42.19;100358.50;4858931;28;97021;-77
2021/06/20 07:37:19;;;;;;;18.77;15.77;;;;;;;21.52;41.81;100363.75;4843462;28;100535;-75
2021/06/20 07:39:46;;;;;;;19.23;16.23;;;;;;;21.57;42.12;100353.66;4843133;28;97926;-77
2021/06/20 07:42:14;;;;;;;18.55;16.55;;;;;;;21.63;41.98;100364.31;4824902;28;97943;-77
2021/06/20 07:44:42;;;;;;;23.25;15.57;;;;;;;21.67;41.64;100365.09;4843448;28;97251;-76
2021/06/20 07:47:10;;;;;;;19.45;16.00;;;;;;;21.71;41.79;100364.06;4843419;28;100472;-76
2021/06/20 07:49:39;;;;;;;18.10;15.45;;;;;;;21.73;41.44;100368.53;4826860;28;99492;-76
2021/06/20 07:52:07;;;;;;;18.20;16.20;;;;;;;21.77;41.41;100369.31;4839854;28;99317;-77
2021/06/20 07:54:35;;;;;;;17.10;15.27;;;;;;;21.85;41.39;100367.25;4845280;28;97355;-76
2021/06/20 07:57:03;;;;;;;17.10;15.48;;;;;;;21.96;41.26;100361.50;4829125;28;100551;-77
2021/06/20 07:59:31;;;;;;;16.92;15.10;;;;;;;22.00;41.32;100363.19;4843637;28;99554;-76
2021/06/20 08:01:58;;;;;;;19.77;15.93;;;;;;;22.03;40.97;100376.59;4842816;28;97719;-77
2021/06/20 08:04:26;;;;;;;17.40;15.55;;;;;;;22.10;41.22;100380.88;4856403;28;98765;-77
2021/06/20 08:06:55;;;;;;;20.95;17.33;;;;;;;22.14;40.93;100371.72;4824433;28;101306;-77
2021/06/20 08:09:23;;;;;;;17.13;15.32;;;;;;;22.15;40.99;100382.50;4843745;28;99224;-76
2021/06/20 08:11:51;;;;;;;19.50;16.85;;;;;;;22.18;40.92;100379.72;4839135;28;97321;-77
2021/06/20 08:14:19;;;;;;;17.98;16.13;;;;;;;22.23;40.91;100382.25;4843074;28;97149;-76
2021/06/20 08:16:47;;;;;;;17.80;16.10;;;;;;;22.28;40.75;100393.88;4839392;28;101226;-76
2021/06/20 08:19:16;;;;;;;33.35;29.75;;;;;;;22.33;40.90;100390.06;4841419;28;99945;-77
2021/06/20 08:21:44;;;;;;;18.70;16.58;;;;;;;22.37;40.76;100394.47;4844030;28;98805;-77
2021/06/20 08:24:14;;;;;;;17.85;14.68;;;;;;;22.39;40.70;100397.09;4844276;28;97556;-78
2021/06/20 08:26:45;;;;;;;18.83;13.90;;;;;;;22.42;40.82;100402.44;4844980;28;99330;-76
2021/06/20 08:29:13;;;;;;;16.77;14.40;;;;;;;22.43;40.85;100390.66;4825445;28;100549;-77
2021/06/20 08:31:41;;;;;;;16.42;13.98;;;;;;;22.46;40.58;100390.53;4839299;28;97387;-77
2021/06/20 08:34:09;;;;;;;14.95;13.10;;;;;;;22.51;40.55;100397.56;4841136;28;97242;-78
2021/06/20 08:36:38;;;;;;;15.73;14.20;;;;;;;22.56;40.34;100389.31;4840683;28;97620;-76
2021/06/20 08:39:06;;;;;;;15.23;11.70;;;;;;;22.63;40.03;100389.03;4840359;28;99689;-75
2021/06/20 08:41:40;;;;;;;16.20;12.32;;;;;;;22.67;40.26;100398.84;4823127;28;97334;-75
2021/06/20 08:44:16;;;;;;;14.68;12.35;;;;;;;22.71;40.15;100388.78;4841568;28;97744;-77
2021/06/20 08:46:44;;;;;;;13.68;12.35;;;;;;;22.76;40.13;100394.91;4841112;28;99431;-77
2021/06/20 08:49:13;;;;;;;16.08;12.93;;;;;;;22.75;39.96;100383.19;4842457;28;97703;-76
2021/06/20 08:51:41;;;;;;;15.23;13.48;;;;;;;22.79;39.93;100383.94;4840007;28;96888;-77
2021/06/20 08:54:09;;;;;;;14.98;12.38;;;;;;;22.80;39.98;100374.88;4839901;28;97861;-78
2021/06/20 08:56:39;;;;;;;14.50;12.65;;;;;;;22.83;40.16;100400.13;4835055;28;98115;-76
2021/06/20 08:59:07;;;;;;;15.63;12.35;;;;;;;22.85;39.85;100394.63;4819720;28;99536;-77
2021/06/20 09:01:36;;;;;;;16.88;12.15;;;;;;;22.89;39.93;100396.28;4840325;28;97091;-77
2021/06/20 09:04:04;;;;;;;13.68;11.98;;;;;;;22.94;39.65;100407.88;4838838;28;97016;-76
2021/06/20 09:06:33;;;;;;;13.15;11.80;;;;;;;22.96;39.89;100405.09;4819280;28;100769;-78
2021/06/20 09:09:04;;;;;;;12.98;11.73;;;;;;;22.95;39.82;100398.78;4834218;28;100434;-77
2021/06/20 09:11:33;;;;;;;16.13;12.10;;;;;;;22.96;39.87;100387.00;4822441;29;97577;-78
2021/06/20 09:14:05;;;;;;;20.65;12.10;;;;;;;23.02;39.58;100383.16;4826737;28;97479;-77
2021/06/20 09:16:35;;;;;;;15.50;11.40;;;;;;;23.04;39.38;100393.00;4838500;28;100729;-77
2021/06/20 09:19:03;;;;;;;11.68;10.52;;;;;;;23.05;39.45;100386.66;4840636;28;99480;-78
2021/06/20 09:21:32;;;;;;;12.68;11.45;;;;;;;23.08;39.66;100394.69;4840859;28;97018;-77
2021/06/20 09:24:00;;;;;;;12.48;11.18;;;;;;;23.09;39.77;100392.84;4839023;28;97962;-77
2021/06/20 09:26:36;;;;;;;14.05;10.85;;;;;;;23.03;39.65;100395.78;4838023;28;99425;-76
2021/06/20 09:29:07;;;;;;;16.08;12.48;;;;;;;23.08;39.43;100397.38;4840517;28;100725;-77
2021/06/20 09:31:46;;;;;;;15.90;12.27;;;;;;;23.11;39.38;100410.88;4840156;28;98509;-77
2021/06/20 09:34:15;;;;;;;12.43;11.05;;;;;;;23.13;39.43;100406.25;4857482;28;97104;-78
2021/06/20 09:36:43;;;;;;;12.93;11.63;;;;;;;23.16;39.43;100403.44;4842936;28;97272;-78
2021/06/20 09:39:21;;;;;;;12.65;11.45;;;;;;;23.20;39.02;100405.09;4842533;28;99579;-78
2021/06/20 09:41:57;;;;;;;12.05;10.70;;;;;;;23.25;38.68;100413.97;4841340;28;98426;-78
2021/06/20 09:44:41;;;;;;;13.45;9.57;;;;;;;23.23;38.87;100404.09;4843801;28;97213;-76
2021/06/20 09:47:11;;;;;;;14.18;9.43;;;;;;;23.31;39.00;100401.97;4841591;28;100540;-78
2021/06/20 09:49:43;;;;;;;12.88;10.73;;;;;;;23.36;38.63;100400.00;4841634;28;100395;-77
2021/06/20 09:52:12;;;;;;;13.07;9.27;;;;;;;23.40;38.85;100385.38;4846251;28;96818;-77
2021/06/20 09:54:43;;;;;;;11.82;8.02;;;;;;;23.46;38.47;100385.16;4842950;28;97598;-77
2021/06/20 09:57:15;;;;;;;10.50;7.93;;;;;;;23.54;37.97;100389.34;4843508;28;98750;-78
2021/06/20 09:59:55;;;;;;;9.98;7.88;;;;;;;23.52;37.06;100393.94;4842399;28;97714;-78
2021/06/20 10:02:25;;;;;;;15.32;8.20;;;;;;;23.63;38.03;100383.53;4841487;28;98126;-78
2021/06/20 10:04:53;;;;;;;15.05;8.02;;;;;;;23.71;37.95;100389.56;4842959;28;97974;-78
2021/06/20 10:07:25;;;;;;;11.73;7.10;;;;;;;23.79;37.95;100395.56;4839050;28;100307;-77
2021/06/20 10:09:53;;;;;;;10.70;7.05;;;;;;;23.85;37.88;100384.47;4831568;28;99339;-78
2021/06/20 10:12:22;;;;;;;11.65;7.30;;;;;;;23.95;37.24;100381.41;4840112;28;97329;-77
2021/06/20 10:14:53;;;;;;;14.50;7.78;;;;;;;24.02;36.90;100383.84;4839282;28;98150;-77
2021/06/20 10:17:27;;;;;;;8.05;7.28;;;;;;;24.09;36.79;100371.75;4826018;28;99391;-78
2021/06/20 10:19:57;;;;;;;10.50;7.38;;;;;;;24.13;36.83;100384.28;4827715;28;99708;-76
2021/06/20 10:22:34;;;;;;;8.50;6.45;;;;;;;24.14;37.00;100371.53;4847086;28;97751;-77
2021/06/20 10:25:04;;;;;;;8.35;6.40;;;;;;;24.17;37.12;100382.31;4848388;28;98712;-79
2021/06/20 10:27:33;;;;;;;8.80;5.45;;;;;;;24.17;36.41;100379.59;4847132;28;98579;-77
2021/06/20 10:30:06;;;;;;;10.00;5.45;;;;;;;24.20;35.61;100379.47;4844891;28;99573;-78
2021/06/20 10:32:39;;;;;;;6.70;5.50;;;;;;;24.24;36.45;100398.31;4832695;28;97938;-78
2021/06/20 10:35:10;;;;;;;9.23;6.03;;;;;;;24.29;36.15;100384.50;4846651;28;99181;-76
2021/06/20 10:37:41;;;;;;;8.15;6.10;;;;;;;24.37;36.14;100382.38;4860295;28;97107;-77
2021/06/20 10:40:20;;;;;;;8.52;5.70;;;;;;;24.40;35.72;100388.56;4821588;28;100620;-76
2021/06/20 10:42:48;;;;;;;6.00;5.40;;;;;;;24.45;36.11;100378.41;4846922;28;97746;-78
2021/06/20 10:45:30;;;;;;;8.43;5.93;;;;;;;24.47;35.12;100372.88;4847825;28;96925;-78
2021/06/20 10:47:59;;;;;;;6.20;5.70;;;;;;;24.52;36.33;100377.19;4848604;28;98574;-77
2021/06/20 10:50:38;;;;;;;8.95;6.18;;;;;;;24.54;35.69;100378.00;4849926;28;99751;-78
2021/06/20 10:53:06;;;;;;;9.10;6.20;;;;;;;24.58;36.15;100389.63;4848938;28;97332;-77
2021/06/20 10:55:40;;;;;;;12.18;7.28;;;;;;;24.61;35.95;100367.72;4845218;28;97330;-78
2021/06/20 10:58:17;;;;;;;6.88;6.18;;;;;;;24.63;35.57;100374.00;4844667;28;99517;-77
2021/06/20 11:00:46;;;;;;;7.85;5.45;;;;;;;24.67;35.61;100375.63;4846742;28;99071;-78
2021/06/20 11:03:21;;;;;;;8.75;6.35;;;;;;;24.68;35.75;100377.44;4827931;28;97874;-78
2021/06/20 11:05:51;;;;;;;9.60;5.75;;;;;;;24.69;35.90;100379.19;4844345;28;97243;-72
2021/06/20 11:08:30;;;;;;;8.98;5.43;;;;;;;24.69;35.28;100376.47;4846905;28;97948;-72
2021/06/20 11:11:10;;;;;;;9.32;5.50;;;;;;;24.66;34.65;100384.75;4842488;28;98247;-70
2021/06/20 11:13:39;;;;;;;9.63;5.72;;;;;;;24.66;35.24;100373.88;4825435;28;97747;-76
2021/06/20 11:16:09;;;;;;;7.72;4.65;;;;;;;24.68;35.52;100371.97;4842622;28;98196;-76
2021/06/20 11:18:38;;;;;;;9.48;4.95;;;;;;;24.75;34.99;100365.31;4826613;28;100326;-79
2021/06/20 11:21:06;;;;;;;5.00;3.60;;;;;;;24.77;34.69;100360.69;4829700;28;98230;-77
2021/06/20 11:23:34;;;;;;;5.55;3.40;;;;;;;24.79;34.22;100354.22;4829953;28;99011;-76